sensor_id;sensor_type;location;lat;lon;timestamp;P1;durP1;ratioP1;P2;durP2;ratioP2
26702;SDS011;14316;51.074;3.704;2022-08-14T00:00:24;5.10;;;4.47;;
26702;SDS011;14316;51.074;3.704;2022-08-14T00:02:50;4.97;;;4.47;;
26702;SDS011;14316;51.074;3.704;2022-08-14T00:05:17;9.05;;;4.32;;
26702;SDS011;14316;51.074;3.704;2022-08-14T00:07:45;6.70;;;4.70;;
26702;SDS011;14316;51.074;3.704;2022-08-14T00:10:14;7.15;;;4.75;;
26702;SDS011;14316;51.074;3.704;2022-08-14T00:12:43;9.25;;;4.65;;
26702;SDS011;14316;51.074;3.704;2022-08-14T00:15:18;6.40;;;5.13;;
26702;SDS011;14316;51.074;3.704;2022-08-14T00:17:49;7.30;;;5.03;;
26702;SDS011;14316;51.074;3.704;2022-08-14T00:20:17;6.30;;;4.70;;
26702;SDS011;14316;51.074;3.704;2022-08-14T00:22:45;4.70;;;4.38;;
26702;SDS011;14316;51.074;3.704;2022-08-14T00:25:12;6.18;;;5.00;;
26702;SDS011;14316;51.074;3.704;2022-08-14T00:27:38;7.13;;;5.30;;
26702;SDS011;14316;51.074;3.704;2022-08-14T00:30:11;5.72;;;4.75;;
26702;SDS011;14316;51.074;3.704;2022-08-14T00:32:38;5.47;;;4.90;;
26702;SDS011;14316;51.074;3.704;2022-08-14T00:35:04;6.25;;;4.45;;
26702;SDS011;14316;51.074;3.704;2022-08-14T00:37:32;8.32;;;5.03;;
26702;SDS011;14316;51.074;3.704;2022-08-14T00:39:58;7.15;;;6.38;;
26702;SDS011;14316;51.074;3.704;2022-08-14T00:42:24;5.90;;;5.20;;
26702;SDS011;14316;51.074;3.704;2022-08-14T00:44:52;7.30;;;4.93;;
26702;SDS011;14316;51.074;3.704;2022-08-14T00:47:19;6.53;;;4.70;;
26702;SDS011;14316;51.074;3.704;2022-08-14T00:49:49;5.97;;;5.05;;
26702;SDS011;14316;51.074;3.704;2022-08-14T00:52:17;5.60;;;4.72;;
26702;SDS011;14316;51.074;3.704;2022-08-14T00:54:44;6.38;;;4.72;;
26702;SDS011;14316;51.074;3.704;2022-08-14T00:57:17;5.38;;;4.72;;
26702;SDS011;14316;51.074;3.704;2022-08-14T00:59:44;5.13;;;4.57;;
26702;SDS011;14316;51.074;3.704;2022-08-14T01:02:09;5.97;;;4.95;;
26702;SDS011;14316;51.074;3.704;2022-08-14T01:04:39;5.80;;;5.20;;
26702;SDS011;14316;51.074;3.704;2022-08-14T01:07:08;5.32;;;4.82;;
26702;SDS011;14316;51.074;3.704;2022-08-14T01:09:35;4.95;;;4.47;;
26702;SDS011;14316;51.074;3.704;2022-08-14T01:12:02;5.60;;;5.10;;
26702;SDS011;14316;51.074;3.704;2022-08-14T01:14:30;6.80;;;4.70;;
26702;SDS011;14316;51.074;3.704;2022-08-14T01:16:56;6.25;;;5.30;;
26702;SDS011;14316;51.074;3.704;2022-08-14T01:19:23;7.68;;;5.63;;
26702;SDS011;14316;51.074;3.704;2022-08-14T01:22:08;6.03;;;5.40;;
26702;SDS011;14316;51.074;3.704;2022-08-14T01:24:40;7.80;;;6.13;;
26702;SDS011;14316;51.074;3.704;2022-08-14T01:27:06;6.57;;;5.80;;
26702;SDS011;14316;51.074;3.704;2022-08-14T01:29:32;7.13;;;6.43;;
26702;SDS011;14316;51.074;3.704;2022-08-14T01:32:02;7.30;;;6.22;;
26702;SDS011;14316;51.074;3.704;2022-08-14T01:34:29;7.35;;;6.40;;
26702;SDS011;14316;51.074;3.704;2022-08-14T01:36:57;7.40;;;6.68;;
26702;SDS011;14316;51.074;3.704;2022-08-14T01:39:24;7.20;;;6.30;;
26702;SDS011;14316;51.074;3.704;2022-08-14T01:41:50;8.80;;;6.30;;
26702;SDS011;14316;51.074;3.704;2022-08-14T01:44:20;7.22;;;6.53;;
26702;SDS011;14316;51.074;3.704;2022-08-14T01:46:48;7.40;;;6.70;;
26702;SDS011;14316;51.074;3.704;2022-08-14T01:49:20;10.07;;;6.80;;
26702;SDS011;14316;51.074;3.704;2022-08-14T01:51:47;8.82;;;6.43;;
26702;SDS011;14316;51.074;3.704;2022-08-14T01:54:15;7.82;;;6.75;;
26702;SDS011;14316;51.074;3.704;2022-08-14T01:56:45;6.90;;;6.28;;
26702;SDS011;14316;51.074;3.704;2022-08-14T01:59:18;7.95;;;6.75;;
26702;SDS011;14316;51.074;3.704;2022-08-14T02:01:53;8.23;;;6.90;;
26702;SDS011;14316;51.074;3.704;2022-08-14T02:04:22;9.40;;;7.03;;
26702;SDS011;14316;51.074;3.704;2022-08-14T02:06:49;8.23;;;7.25;;
26702;SDS011;14316;51.074;3.704;2022-08-14T02:09:16;8.35;;;7.55;;
26702;SDS011;14316;51.074;3.704;2022-08-14T02:11:44;8.07;;;7.00;;
26702;SDS011;14316;51.074;3.704;2022-08-14T02:14:11;8.23;;;6.97;;
26702;SDS011;14316;51.074;3.704;2022-08-14T02:16:38;9.25;;;7.38;;
26702;SDS011;14316;51.074;3.704;2022-08-14T02:19:12;7.75;;;6.95;;
26702;SDS011;14316;51.074;3.704;2022-08-14T02:21:42;11.80;;;7.65;;
26702;SDS011;14316;51.074;3.704;2022-08-14T02:24:10;7.20;;;6.60;;
26702;SDS011;14316;51.074;3.704;2022-08-14T02:26:38;7.18;;;6.55;;
26702;SDS011;14316;51.074;3.704;2022-08-14T02:29:09;7.97;;;7.28;;
26702;SDS011;14316;51.074;3.704;2022-08-14T02:31:40;7.38;;;6.78;;
26702;SDS011;14316;51.074;3.704;2022-08-14T02:34:08;8.75;;;7.63;;
26702;SDS011;14316;51.074;3.704;2022-08-14T02:36:39;7.95;;;7.15;;
26702;SDS011;14316;51.074;3.704;2022-08-14T02:39:07;8.70;;;6.95;;
26702;SDS011;14316;51.074;3.704;2022-08-14T02:41:35;10.00;;;7.25;;
26702;SDS011;14316;51.074;3.704;2022-08-14T02:44:02;7.65;;;7.05;;
26702;SDS011;14316;51.074;3.704;2022-08-14T02:46:29;9.85;;;7.00;;
26702;SDS011;14316;51.074;3.704;2022-08-14T02:48:57;7.97;;;7.13;;
26702;SDS011;14316;51.074;3.704;2022-08-14T02:51:24;9.38;;;7.13;;
26702;SDS011;14316;51.074;3.704;2022-08-14T02:53:54;8.68;;;7.35;;
26702;SDS011;14316;51.074;3.704;2022-08-14T02:56:22;8.93;;;6.93;;
26702;SDS011;14316;51.074;3.704;2022-08-14T02:58:51;8.27;;;7.43;;
26702;SDS011;14316;51.074;3.704;2022-08-14T03:01:19;16.42;;;7.78;;
26702;SDS011;14316;51.074;3.704;2022-08-14T03:03:47;8.32;;;7.47;;
26702;SDS011;14316;51.074;3.704;2022-08-14T03:06:14;10.48;;;7.57;;
26702;SDS011;14316;51.074;3.704;2022-08-14T03:08:41;8.43;;;7.63;;
26702;SDS011;14316;51.074;3.704;2022-08-14T03:11:09;8.85;;;7.38;;
26702;SDS011;14316;51.074;3.704;2022-08-14T03:13:37;7.60;;;6.97;;
26702;SDS011;14316;51.074;3.704;2022-08-14T03:16:09;8.82;;;6.90;;
26702;SDS011;14316;51.074;3.704;2022-08-14T03:18:40;11.30;;;6.88;;
26702;SDS011;14316;51.074;3.704;2022-08-14T03:21:10;7.65;;;6.97;;
26702;SDS011;14316;51.074;3.704;2022-08-14T03:23:42;8.30;;;6.72;;
26702;SDS011;14316;51.074;3.704;2022-08-14T03:26:13;7.90;;;7.18;;
26702;SDS011;14316;51.074;3.704;2022-08-14T03:28:47;7.78;;;6.97;;
26702;SDS011;14316;51.074;3.704;2022-08-14T03:31:15;7.25;;;6.55;;
26702;SDS011;14316;51.074;3.704;2022-08-14T03:33:47;7.47;;;6.72;;
26702;SDS011;14316;51.074;3.704;2022-08-14T03:36:15;13.07;;;7.18;;
26702;SDS011;14316;51.074;3.704;2022-08-14T03:38:42;8.05;;;6.85;;
26702;SDS011;14316;51.074;3.704;2022-08-14T03:41:10;8.48;;;6.88;;
26702;SDS011;14316;51.074;3.704;2022-08-14T03:43:39;7.95;;;6.32;;
26702;SDS011;14316;51.074;3.704;2022-08-14T03:46:05;7.68;;;6.68;;
26702;SDS011;14316;51.074;3.704;2022-08-14T03:48:31;8.38;;;6.22;;
26702;SDS011;14316;51.074;3.704;2022-08-14T03:50:57;6.95;;;6.32;;
26702;SDS011;14316;51.074;3.704;2022-08-14T03:53:23;7.07;;;6.10;;
26702;SDS011;14316;51.074;3.704;2022-08-14T03:55:50;8.73;;;6.35;;
26702;SDS011;14316;51.074;3.704;2022-08-14T03:58:20;7.43;;;6.38;;
26702;SDS011;14316;51.074;3.704;2022-08-14T04:00:45;9.38;;;6.47;;
26702;SDS011;14316;51.074;3.704;2022-08-14T04:03:11;7.60;;;6.88;;
26702;SDS011;14316;51.074;3.704;2022-08-14T04:05:38;7.53;;;6.78;;
26702;SDS011;14316;51.074;3.704;2022-08-14T04:08:09;7.80;;;7.07;;
26702;SDS011;14316;51.074;3.704;2022-08-14T04:10:35;7.80;;;7.10;;
26702;SDS011;14316;51.074;3.704;2022-08-14T04:13:03;7.55;;;6.70;;
26702;SDS011;14316;51.074;3.704;2022-08-14T04:15:31;7.13;;;6.43;;
26702;SDS011;14316;51.074;3.704;2022-08-14T04:18:01;7.38;;;6.65;;
26702;SDS011;14316;51.074;3.704;2022-08-14T04:20:30;9.82;;;7.53;;
26702;SDS011;14316;51.074;3.704;2022-08-14T04:22:56;7.82;;;6.85;;
26702;SDS011;14316;51.074;3.704;2022-08-14T04:25:22;7.10;;;6.10;;
26702;SDS011;14316;51.074;3.704;2022-08-14T04:27:48;9.70;;;7.50;;
26702;SDS011;14316;51.074;3.704;2022-08-14T04:30:13;7.22;;;6.60;;
26702;SDS011;14316;51.074;3.704;2022-08-14T04:32:41;7.85;;;7.13;;
26702;SDS011;14316;51.074;3.704;2022-08-14T04:35:06;7.25;;;6.60;;
26702;SDS011;14316;51.074;3.704;2022-08-14T04:37:34;7.70;;;6.75;;
26702;SDS011;14316;51.074;3.704;2022-08-14T04:40:19;8.02;;;7.30;;
26702;SDS011;14316;51.074;3.704;2022-08-14T04:43:03;9.65;;;7.53;;
26702;SDS011;14316;51.074;3.704;2022-08-14T04:45:48;10.57;;;6.72;;
26702;SDS011;14316;51.074;3.704;2022-08-14T04:48:14;9.23;;;7.00;;
26702;SDS011;14316;51.074;3.704;2022-08-14T04:50:51;7.55;;;7.03;;
26702;SDS011;14316;51.074;3.704;2022-08-14T04:53:22;8.38;;;6.85;;
26702;SDS011;14316;51.074;3.704;2022-08-14T04:55:49;8.38;;;7.68;;
26702;SDS011;14316;51.074;3.704;2022-08-14T04:58:25;7.95;;;7.15;;
26702;SDS011;14316;51.074;3.704;2022-08-14T05:00:54;8.32;;;7.50;;
26702;SDS011;14316;51.074;3.704;2022-08-14T05:03:22;8.43;;;7.50;;
26702;SDS011;14316;51.074;3.704;2022-08-14T05:05:51;7.20;;;6.60;;
26702;SDS011;14316;51.074;3.704;2022-08-14T05:08:18;8.50;;;7.60;;
26702;SDS011;14316;51.074;3.704;2022-08-14T05:10:45;7.65;;;6.75;;
26702;SDS011;14316;51.074;3.704;2022-08-14T05:13:20;7.22;;;6.53;;
26702;SDS011;14316;51.074;3.704;2022-08-14T05:15:47;8.65;;;6.50;;
26702;SDS011;14316;51.074;3.704;2022-08-14T05:18:15;7.25;;;6.55;;
26702;SDS011;14316;51.074;3.704;2022-08-14T05:20:48;6.90;;;6.40;;
26702;SDS011;14316;51.074;3.704;2022-08-14T05:23:16;9.77;;;6.72;;
26702;SDS011;14316;51.074;3.704;2022-08-14T05:25:44;7.47;;;6.18;;
26702;SDS011;14316;51.074;3.704;2022-08-14T05:28:16;8.25;;;6.60;;
26702;SDS011;14316;51.074;3.704;2022-08-14T05:30:54;6.93;;;6.22;;
26702;SDS011;14316;51.074;3.704;2022-08-14T05:33:21;6.20;;;5.70;;
26702;SDS011;14316;51.074;3.704;2022-08-14T05:35:53;6.35;;;5.55;;
26702;SDS011;14316;51.074;3.704;2022-08-14T05:38:27;8.40;;;5.35;;
26702;SDS011;14316;51.074;3.704;2022-08-14T05:40:57;10.45;;;5.65;;
26702;SDS011;14316;51.074;3.704;2022-08-14T05:43:28;6.10;;;5.00;;
26702;SDS011;14316;51.074;3.704;2022-08-14T05:45:55;9.45;;;5.30;;
26702;SDS011;14316;51.074;3.704;2022-08-14T05:48:22;6.22;;;5.63;;
26702;SDS011;14316;51.074;3.704;2022-08-14T05:50:49;7.57;;;5.43;;
26702;SDS011;14316;51.074;3.704;2022-08-14T05:53:15;6.68;;;5.00;;
26702;SDS011;14316;51.074;3.704;2022-08-14T05:55:41;7.07;;;5.45;;
26702;SDS011;14316;51.074;3.704;2022-08-14T05:58:07;6.15;;;5.45;;
26702;SDS011;14316;51.074;3.704;2022-08-14T06:00:37;7.47;;;4.78;;
26702;SDS011;14316;51.074;3.704;2022-08-14T06:03:06;6.20;;;5.68;;
26702;SDS011;14316;51.074;3.704;2022-08-14T06:05:33;9.52;;;5.45;;
26702;SDS011;14316;51.074;3.704;2022-08-14T06:08:00;6.28;;;5.22;;
26702;SDS011;14316;51.074;3.704;2022-08-14T06:10:26;5.93;;;5.18;;
26702;SDS011;14316;51.074;3.704;2022-08-14T06:12:53;11.63;;;5.13;;
26702;SDS011;14316;51.074;3.704;2022-08-14T06:15:19;8.18;;;5.43;;
26702;SDS011;14316;51.074;3.704;2022-08-14T06:17:45;6.10;;;5.30;;
26702;SDS011;14316;51.074;3.704;2022-08-14T06:20:15;6.13;;;5.30;;
26702;SDS011;14316;51.074;3.704;2022-08-14T06:22:42;6.20;;;5.10;;
26702;SDS011;14316;51.074;3.704;2022-08-14T06:25:10;5.95;;;5.32;;
26702;SDS011;14316;51.074;3.704;2022-08-14T06:27:40;5.93;;;4.82;;
26702;SDS011;14316;51.074;3.704;2022-08-14T06:30:10;5.40;;;4.90;;
26702;SDS011;14316;51.074;3.704;2022-08-14T06:32:37;7.53;;;4.60;;
26702;SDS011;14316;51.074;3.704;2022-08-14T06:35:04;7.18;;;4.60;;
26702;SDS011;14316;51.074;3.704;2022-08-14T06:38:04;7.75;;;5.20;;
26702;SDS011;14316;51.074;3.704;2022-08-14T06:43:00;5.07;;;4.60;;
26702;SDS011;14316;51.074;3.704;2022-08-14T06:45:28;6.60;;;4.82;;
26702;SDS011;14316;51.074;3.704;2022-08-14T06:47:55;7.35;;;4.57;;
26702;SDS011;14316;51.074;3.704;2022-08-14T06:50:22;5.65;;;4.38;;
26702;SDS011;14316;51.074;3.704;2022-08-14T06:52:49;6.18;;;5.05;;
26702;SDS011;14316;51.074;3.704;2022-08-14T06:55:15;4.82;;;4.38;;
26702;SDS011;14316;51.074;3.704;2022-08-14T06:57:46;5.15;;;4.50;;
26702;SDS011;14316;51.074;3.704;2022-08-14T07:00:23;7.57;;;4.45;;
26702;SDS011;14316;51.074;3.704;2022-08-14T07:02:50;6.03;;;4.72;;
26702;SDS011;14316;51.074;3.704;2022-08-14T07:05:35;8.07;;;4.43;;
26702;SDS011;14316;51.074;3.704;2022-08-14T07:08:19;5.65;;;4.90;;
26702;SDS011;14316;51.074;3.704;2022-08-14T07:10:50;4.63;;;4.30;;
26702;SDS011;14316;51.074;3.704;2022-08-14T07:13:17;6.07;;;4.32;;
26702;SDS011;14316;51.074;3.704;2022-08-14T07:15:45;7.03;;;4.47;;
26702;SDS011;14316;51.074;3.704;2022-08-14T07:18:14;5.65;;;4.60;;
26702;SDS011;14316;51.074;3.704;2022-08-14T07:20:47;5.38;;;4.45;;
26702;SDS011;14316;51.074;3.704;2022-08-14T07:23:12;4.70;;;4.00;;
26702;SDS011;14316;51.074;3.704;2022-08-14T07:25:39;5.05;;;4.15;;
26702;SDS011;14316;51.074;3.704;2022-08-14T07:28:10;5.70;;;5.18;;
26702;SDS011;14316;51.074;3.704;2022-08-14T07:30:37;6.57;;;4.55;;
26702;SDS011;14316;51.074;3.704;2022-08-14T07:33:04;4.43;;;3.78;;
26702;SDS011;14316;51.074;3.704;2022-08-14T07:35:33;10.15;;;4.03;;
26702;SDS011;14316;51.074;3.704;2022-08-14T07:38:00;4.68;;;3.83;;
26702;SDS011;14316;51.074;3.704;2022-08-14T07:40:26;7.50;;;4.38;;
26702;SDS011;14316;51.074;3.704;2022-08-14T07:42:52;7.50;;;3.95;;
26702;SDS011;14316;51.074;3.704;2022-08-14T07:45:19;6.55;;;3.97;;
26702;SDS011;14316;51.074;3.704;2022-08-14T07:47:45;6.15;;;3.50;;
26702;SDS011;14316;51.074;3.704;2022-08-14T07:50:14;4.32;;;3.42;;
26702;SDS011;14316;51.074;3.704;2022-08-14T07:52:41;4.28;;;3.97;;
26702;SDS011;14316;51.074;3.704;2022-08-14T07:55:09;3.90;;;3.55;;
26702;SDS011;14316;51.074;3.704;2022-08-14T07:57:38;4.00;;;3.63;;
26702;SDS011;14316;51.074;3.704;2022-08-14T08:00:06;5.65;;;3.70;;
26702;SDS011;14316;51.074;3.704;2022-08-14T08:02:36;4.35;;;3.80;;
26702;SDS011;14316;51.074;3.704;2022-08-14T08:05:05;5.90;;;4.00;;
26702;SDS011;14316;51.074;3.704;2022-08-14T08:07:32;4.45;;;3.97;;
26702;SDS011;14316;51.074;3.704;2022-08-14T08:10:03;6.80;;;4.32;;
26702;SDS011;14316;51.074;3.704;2022-08-14T08:13:12;4.60;;;4.30;;
26702;SDS011;14316;51.074;3.704;2022-08-14T08:15:41;7.55;;;5.00;;
26702;SDS011;14316;51.074;3.704;2022-08-14T08:18:12;6.03;;;4.95;;
26702;SDS011;14316;51.074;3.704;2022-08-14T08:20:41;4.63;;;4.22;;
26702;SDS011;14316;51.074;3.704;2022-08-14T08:23:11;6.65;;;4.50;;
26702;SDS011;14316;51.074;3.704;2022-08-14T08:25:41;5.60;;;5.10;;
26702;SDS011;14316;51.074;3.704;2022-08-14T08:28:13;7.60;;;5.43;;
26702;SDS011;14316;51.074;3.704;2022-08-14T08:33:18;5.40;;;4.17;;
26702;SDS011;14316;51.074;3.704;2022-08-14T08:35:45;9.35;;;4.47;;
26702;SDS011;14316;51.074;3.704;2022-08-14T08:38:13;7.05;;;4.20;;
26702;SDS011;14316;51.074;3.704;2022-08-14T08:40:45;7.55;;;4.72;;
26702;SDS011;14316;51.074;3.704;2022-08-14T08:43:19;5.22;;;4.70;;
26702;SDS011;14316;51.074;3.704;2022-08-14T08:45:53;4.15;;;3.58;;
26702;SDS011;14316;51.074;3.704;2022-08-14T08:48:28;8.32;;;4.47;;
26702;SDS011;14316;51.074;3.704;2022-08-14T08:51:00;6.30;;;4.40;;
26702;SDS011;14316;51.074;3.704;2022-08-14T08:53:30;4.25;;;3.95;;
26702;SDS011;14316;51.074;3.704;2022-08-14T08:58:25;4.32;;;4.00;;
26702;SDS011;14316;51.074;3.704;2022-08-14T09:00:56;7.35;;;5.60;;
26702;SDS011;14316;51.074;3.704;2022-08-14T09:03:23;6.63;;;4.43;;
26702;SDS011;14316;51.074;3.704;2022-08-14T09:08:31;5.65;;;4.00;;
26702;SDS011;14316;51.074;3.704;2022-08-14T09:11:03;5.82;;;4.50;;
26702;SDS011;14316;51.074;3.704;2022-08-14T09:13:36;7.28;;;4.30;;
26702;SDS011;14316;51.074;3.704;2022-08-14T09:16:02;7.55;;;4.45;;
26702;SDS011;14316;51.074;3.704;2022-08-14T09:18:28;5.68;;;4.70;;
26702;SDS011;14316;51.074;3.704;2022-08-14T09:20:55;4.20;;;3.80;;
26702;SDS011;14316;51.074;3.704;2022-08-14T09:23:21;3.90;;;3.60;;
26702;SDS011;14316;51.074;3.704;2022-08-14T09:25:50;6.03;;;3.83;;
26702;SDS011;14316;51.074;3.704;2022-08-14T09:28:18;4.65;;;3.53;;
26702;SDS011;14316;51.074;3.704;2022-08-14T09:30:51;6.68;;;3.60;;
26702;SDS011;14316;51.074;3.704;2022-08-14T09:33:36;7.03;;;3.40;;
26702;SDS011;14316;51.074;3.704;2022-08-14T09:45:20;6.50;;;3.83;;
26702;SDS011;14316;51.074;3.704;2022-08-14T09:47:57;3.60;;;3.30;;
26702;SDS011;14316;51.074;3.704;2022-08-14T09:50:28;7.38;;;3.67;;
26702;SDS011;14316;51.074;3.704;2022-08-14T09:53:01;6.18;;;3.30;;
26702;SDS011;14316;51.074;3.704;2022-08-14T09:55:30;3.53;;;3.22;;
26702;SDS011;14316;51.074;3.704;2022-08-14T09:58:34;6.18;;;3.47;;
26702;SDS011;14316;51.074;3.704;2022-08-14T10:03:33;4.72;;;3.20;;
26702;SDS011;14316;51.074;3.704;2022-08-14T10:08:43;3.65;;;3.03;;
26702;SDS011;14316;51.074;3.704;2022-08-14T10:11:15;4.05;;;2.75;;
26702;SDS011;14316;51.074;3.704;2022-08-14T10:13:44;3.58;;;3.28;;
26702;SDS011;14316;51.074;3.704;2022-08-14T10:16:11;3.83;;;3.00;;
26702;SDS011;14316;51.074;3.704;2022-08-14T10:18:38;3.10;;;2.80;;
26702;SDS011;14316;51.074;3.704;2022-08-14T10:21:07;4.70;;;2.80;;
26702;SDS011;14316;51.074;3.704;2022-08-14T10:23:41;7.35;;;3.55;;
26702;SDS011;14316;51.074;3.704;2022-08-14T10:26:15;3.00;;;2.53;;
26702;SDS011;14316;51.074;3.704;2022-08-14T10:28:44;3.53;;;2.67;;
26702;SDS011;14316;51.074;3.704;2022-08-14T10:31:18;3.70;;;3.40;;
26702;SDS011;14316;51.074;3.704;2022-08-14T10:36:35;3.47;;;2.83;;
26702;SDS011;14316;51.074;3.704;2022-08-14T10:39:20;2.90;;;2.40;;
26702;SDS011;14316;51.074;3.704;2022-08-14T10:41:47;5.75;;;2.97;;
26702;SDS011;14316;51.074;3.704;2022-08-14T10:44:17;3.33;;;2.80;;
26702;SDS011;14316;51.074;3.704;2022-08-14T10:51:57;2.63;;;2.43;;
26702;SDS011;14316;51.074;3.704;2022-08-14T10:54:38;3.50;;;2.30;;
26702;SDS011;14316;51.074;3.704;2022-08-14T11:02:17;5.00;;;2.60;;
26702;SDS011;14316;51.074;3.704;2022-08-14T11:04:55;4.20;;;2.40;;
26702;SDS011;14316;51.074;3.704;2022-08-14T11:07:25;3.95;;;2.28;;
26702;SDS011;14316;51.074;3.704;2022-08-14T11:09:57;2.75;;;2.55;;
26702;SDS011;14316;51.074;3.704;2022-08-14T11:12:25;2.70;;;2.50;;
26702;SDS011;14316;51.074;3.704;2022-08-14T11:14:55;5.03;;;3.00;;
26702;SDS011;14316;51.074;3.704;2022-08-14T11:17:29;4.20;;;2.35;;
26702;SDS011;14316;51.074;3.704;2022-08-14T11:19:57;2.38;;;2.25;;
26702;SDS011;14316;51.074;3.704;2022-08-14T11:22:27;3.00;;;2.10;;
26702;SDS011;14316;51.074;3.704;2022-08-14T11:24:55;3.47;;;1.85;;
26702;SDS011;14316;51.074;3.704;2022-08-14T11:27:28;2.90;;;2.10;;
26702;SDS011;14316;51.074;3.704;2022-08-14T11:29:57;7.10;;;2.78;;
26702;SDS011;14316;51.074;3.704;2022-08-14T11:32:28;7.10;;;3.03;;
26702;SDS011;14316;51.074;3.704;2022-08-14T11:34:55;3.90;;;2.17;;
26702;SDS011;14316;51.074;3.704;2022-08-14T11:37:28;2.38;;;1.83;;
26702;SDS011;14316;51.074;3.704;2022-08-14T11:39:58;9.05;;;2.92;;
26702;SDS011;14316;51.074;3.704;2022-08-14T11:42:26;13.98;;;2.80;;
26702;SDS011;14316;51.074;3.704;2022-08-14T11:44:58;12.73;;;3.40;;
26702;SDS011;14316;51.074;3.704;2022-08-14T11:47:28;5.35;;;2.42;;
26702;SDS011;14316;51.074;3.704;2022-08-14T11:49:57;3.33;;;2.20;;
26702;SDS011;14316;51.074;3.704;2022-08-14T11:52:32;6.22;;;2.90;;
26702;SDS011;14316;51.074;3.704;2022-08-14T11:54:58;5.22;;;2.20;;
26702;SDS011;14316;51.074;3.704;2022-08-14T11:57:25;2.92;;;2.08;;
26702;SDS011;14316;51.074;3.704;2022-08-14T12:00:01;8.65;;;2.90;;
26702;SDS011;14316;51.074;3.704;2022-08-14T12:04:57;7.28;;;2.72;;
26702;SDS011;14316;51.074;3.704;2022-08-14T12:07:23;3.22;;;2.00;;
26702;SDS011;14316;51.074;3.704;2022-08-14T12:09:53;2.80;;;2.60;;
26702;SDS011;14316;51.074;3.704;2022-08-14T12:12:25;1.85;;;1.63;;
26702;SDS011;14316;51.074;3.704;2022-08-14T12:14:57;2.70;;;1.98;;
26702;SDS011;14316;51.074;3.704;2022-08-14T12:17:30;2.22;;;2.03;;
26702;SDS011;14316;51.074;3.704;2022-08-14T12:20:17;1.83;;;1.50;;
26702;SDS011;14316;51.074;3.704;2022-08-14T12:22:52;5.03;;;1.80;;
26702;SDS011;14316;51.074;3.704;2022-08-14T12:25:46;4.93;;;1.70;;
26702;SDS011;14316;51.074;3.704;2022-08-14T12:28:25;3.58;;;1.70;;
26702;SDS011;14316;51.074;3.704;2022-08-14T12:30:51;2.47;;;1.48;;
26702;SDS011;14316;51.074;3.704;2022-08-14T12:33:21;1.60;;;1.50;;
26702;SDS011;14316;51.074;3.704;2022-08-14T12:36:00;1.85;;;1.60;;
26702;SDS011;14316;51.074;3.704;2022-08-14T12:38:34;2.15;;;1.60;;
26702;SDS011;14316;51.074;3.704;2022-08-14T12:41:03;3.15;;;2.75;;
26702;SDS011;14316;51.074;3.704;2022-08-14T12:43:43;2.42;;;1.63;;
26702;SDS011;14316;51.074;3.704;2022-08-14T12:49:07;1.63;;;1.50;;
26702;SDS011;14316;51.074;3.704;2022-08-14T12:51:34;5.18;;;1.58;;
26702;SDS011;14316;51.074;3.704;2022-08-14T12:54:10;2.15;;;1.60;;
26702;SDS011;14316;51.074;3.704;2022-08-14T12:56:38;3.13;;;1.58;;
26702;SDS011;14316;51.074;3.704;2022-08-14T12:59:04;1.58;;;1.48;;
26702;SDS011;14316;51.074;3.704;2022-08-14T13:01:31;1.95;;;1.55;;
26702;SDS011;14316;51.074;3.704;2022-08-14T13:04:08;2.30;;;1.50;;
26702;SDS011;14316;51.074;3.704;2022-08-14T13:06:48;1.52;;;1.40;;
26702;SDS011;14316;51.074;3.704;2022-08-14T13:09:15;2.03;;;1.50;;
26702;SDS011;14316;51.074;3.704;2022-08-14T13:11:44;2.17;;;1.50;;
26702;SDS011;14316;51.074;3.704;2022-08-14T13:14:16;3.20;;;1.58;;
26702;SDS011;14316;51.074;3.704;2022-08-14T13:16:48;4.18;;;1.50;;
26702;SDS011;14316;51.074;3.704;2022-08-14T13:19:18;3.70;;;1.60;;
26702;SDS011;14316;51.074;3.704;2022-08-14T13:21:52;2.42;;;2.17;;
26702;SDS011;14316;51.074;3.704;2022-08-14T13:24:20;5.13;;;1.90;;
26702;SDS011;14316;51.074;3.704;2022-08-14T13:26:48;4.13;;;1.63;;
26702;SDS011;14316;51.074;3.704;2022-08-14T13:31:44;1.70;;;1.60;;
26702;SDS011;14316;51.074;3.704;2022-08-14T13:34:16;1.60;;;1.50;;
26702;SDS011;14316;51.074;3.704;2022-08-14T13:36:44;1.50;;;1.40;;
26702;SDS011;14316;51.074;3.704;2022-08-14T13:39:13;1.50;;;1.40;;
26702;SDS011;14316;51.074;3.704;2022-08-14T13:41:43;2.72;;;1.33;;
26702;SDS011;14316;51.074;3.704;2022-08-14T13:44:11;1.60;;;1.45;;
26702;SDS011;14316;51.074;3.704;2022-08-14T13:46:39;1.88;;;1.77;;
26702;SDS011;14316;51.074;3.704;2022-08-14T13:49:06;2.25;;;1.50;;
26702;SDS011;14316;51.074;3.704;2022-08-14T13:51:36;2.33;;;1.42;;
26702;SDS011;14316;51.074;3.704;2022-08-14T13:54:09;2.60;;;1.60;;
26702;SDS011;14316;51.074;3.704;2022-08-14T13:56:39;2.47;;;1.52;;
26702;SDS011;14316;51.074;3.704;2022-08-14T13:59:06;4.15;;;1.80;;
26702;SDS011;14316;51.074;3.704;2022-08-14T14:01:33;2.10;;;1.90;;
26702;SDS011;14316;51.074;3.704;2022-08-14T14:04:01;4.18;;;1.67;;
26702;SDS011;14316;51.074;3.704;2022-08-14T14:06:30;2.00;;;1.65;;
26702;SDS011;14316;51.074;3.704;2022-08-14T14:08:58;2.08;;;1.52;;
26702;SDS011;14316;51.074;3.704;2022-08-14T14:11:26;2.55;;;1.77;;
26702;SDS011;14316;51.074;3.704;2022-08-14T14:13:54;3.15;;;1.60;;
26702;SDS011;14316;51.074;3.704;2022-08-14T14:16:21;2.40;;;1.70;;
26702;SDS011;14316;51.074;3.704;2022-08-14T14:18:50;2.20;;;1.63;;
26702;SDS011;14316;51.074;3.704;2022-08-14T14:21:20;2.13;;;1.80;;
26702;SDS011;14316;51.074;3.704;2022-08-14T14:23:56;2.40;;;1.80;;
26702;SDS011;14316;51.074;3.704;2022-08-14T14:26:22;4.32;;;2.30;;
26702;SDS011;14316;51.074;3.704;2022-08-14T14:28:49;1.80;;;1.67;;
26702;SDS011;14316;51.074;3.704;2022-08-14T14:31:28;3.22;;;1.60;;
26702;SDS011;14316;51.074;3.704;2022-08-14T14:33:55;3.22;;;2.13;;
26702;SDS011;14316;51.074;3.704;2022-08-14T14:36:25;4.40;;;1.87;;
26702;SDS011;14316;51.074;3.704;2022-08-14T14:38:53;3.70;;;1.80;;
26702;SDS011;14316;51.074;3.704;2022-08-14T14:41:24;3.05;;;2.03;;
26702;SDS011;14316;51.074;3.704;2022-08-14T14:43:53;1.98;;;1.77;;
26702;SDS011;14316;51.074;3.704;2022-08-14T14:46:20;2.22;;;1.80;;
26702;SDS011;14316;51.074;3.704;2022-08-14T14:48:47;2.05;;;1.65;;
26702;SDS011;14316;51.074;3.704;2022-08-14T14:51:13;5.22;;;2.58;;
26702;SDS011;14316;51.074;3.704;2022-08-14T14:53:41;4.05;;;1.80;;
26702;SDS011;14316;51.074;3.704;2022-08-14T14:56:08;2.88;;;2.10;;
26702;SDS011;14316;51.074;3.704;2022-08-14T14:58:37;2.20;;;2.00;;
26702;SDS011;14316;51.074;3.704;2022-08-14T15:01:05;3.58;;;1.95;;
26702;SDS011;14316;51.074;3.704;2022-08-14T15:03:33;3.78;;;1.95;;
26702;SDS011;14316;51.074;3.704;2022-08-14T15:06:02;4.00;;;2.00;;
26702;SDS011;14316;51.074;3.704;2022-08-14T15:08:28;2.78;;;1.95;;
26702;SDS011;14316;51.074;3.704;2022-08-14T15:10:58;4.75;;;2.10;;
26702;SDS011;14316;51.074;3.704;2022-08-14T15:13:24;2.17;;;1.98;;
26702;SDS011;14316;51.074;3.704;2022-08-14T15:15:51;2.28;;;2.13;;
26702;SDS011;14316;51.074;3.704;2022-08-14T15:18:19;3.75;;;2.13;;
26702;SDS011;14316;51.074;3.704;2022-08-14T15:20:45;2.95;;;2.28;;
26702;SDS011;14316;51.074;3.704;2022-08-14T15:23:12;8.20;;;2.63;;
26702;SDS011;14316;51.074;3.704;2022-08-14T15:25:39;4.90;;;2.20;;
26702;SDS011;14316;51.074;3.704;2022-08-14T15:28:05;3.08;;;1.90;;
26702;SDS011;14316;51.074;3.704;2022-08-14T15:30:37;2.27;;;2.07;;
26702;SDS011;14316;51.074;3.704;2022-08-14T15:33:04;4.35;;;2.50;;
26702;SDS011;14316;51.074;3.704;2022-08-14T15:35:29;4.13;;;3.10;;
26702;SDS011;14316;51.074;3.704;2022-08-14T15:38:00;3.42;;;2.33;;
26702;SDS011;14316;51.074;3.704;2022-08-14T15:40:33;3.08;;;1.90;;
26702;SDS011;14316;51.074;3.704;2022-08-14T15:43:04;4.32;;;2.50;;
26702;SDS011;14316;51.074;3.704;2022-08-14T15:45:36;3.60;;;2.10;;
26702;SDS011;14316;51.074;3.704;2022-08-14T15:48:06;2.55;;;1.90;;